Aviation Digital Data Service (ADDS)

Output produced by METARs form (0556 UTC 29 May 2017)
found at http://www.aviationweather.gov/adds/metars/
 
OTBD 290500Z 31011KT 280V340 CAVOK 37/16 Q1003 NOSIG
TAF OTBD 290531Z 2906/3012 33012KT CAVOK 
     TEMPO 2908/2915 36015G25KT 7000 NSC 
     PROB30 
     TEMPO 2909/2914 3500 BLDU 
     BECMG 3005/3007 35020KT
       
OTBH 290458Z 33018KT 9000 HZ CLR 35/16 A2966 RMK AO2A SLP044 T03530163 $
TAF AMD OTBH 290039Z 2900/3005 30012KT 9000 HZ SKC WS020/36040KT QNH2959INS 
     BECMG 2905/2906 35015G25KT 8000 BLDU SKC QNH2966INS 
     BECMG 2908/2909 36025G30KT 5000 BLDU SKC 510003 QNH2957INS 
     BECMG 2914/2915 35015G25KT 6000 BLDU SKC QNH2958INS 
     BECMG 2919/2920 33010G15KT 8000 DU SKC WS020/33030KT QNH2957INS WND 31009KT AFT 2922 TX46/2912Z TN26/2902Z